Главная страница
METAR-TAF:

METAR-TAF

Аэропорты :

Cumberland, Мэриленд, США

широта: 39-36-56N, долгота: 078-45-39W, высота над уровнем моря: 236 м

Текущие метеонаблюдения

Эта сводка был подготовлена 18 минут назад, в 23:00 UTC
Ветер 4 Узел от западный-юго-западный
Температура 14°C
Влажность 28%
Давление 1020 hPa
Видимость: 16.1 км
Отдельные облака на высоте 7500 фута

METAR: KCBE 222300Z AUTO 25004KT 10SM SCT075 14/M04 A3012 RMK AO2 T01431044

Время: 19:18 (23:18 UTC)


TAF: отсутствует

Метеонаблюдения и прогнозы для более 4000 аэропортов (сводки METAR и TAF).

Имеющиеся станции представлены на карте желтыми и красными точками.

Чтобы увидеть название станции, наведите на нее мышь.

Затем щелкните, чтобы увидеть метеонаблюдения и метеопрогнозы.

Управление картой: чтобы увеличить масштаб, щелкните зеленые кнопки с черным крестиком; чтобы уменьшить масштаб, щелкните зеленую кнопку с тире; для просмотра соседних карт щелкайте зеленые стрелки.


METAR-TAF: